Time;durP1;ratioP1;P1;durP2;ratioP2;P2;SDS_P1;SDS_P2;PMS_P1;PMS_P2;Temp;Humidity;BMP_temperature;BMP_pressure;BME280_temperature;BME280_humidity;BME280_pressure;Samples;Min_cycle;Max_cycle;Signal;HPM_P1;HPM_P2
2021/11/14 00:02:12;;;;;;;21.38;12.88;;;5.80;93.40;;;;;;5026305;28;20033;-76
2021/11/14 00:04:37;;;;;;;19.88;11.38;;;5.80;93.40;;;;;;5032917;28;20044;-76
2021/11/14 00:07:03;;;;;;;22.70;12.95;;;5.70;93.50;;;;;;5036537;28;20061;-76
2021/11/14 00:09:30;;;;;;;23.65;13.07;;;5.70;93.30;;;;;;5052566;28;20033;-78
2021/11/14 00:11:56;;;;;;;22.20;13.25;;;5.60;92.90;;;;;;5032726;28;20021;-76
2021/11/14 00:14:23;;;;;;;25.23;14.43;;;5.60;92.30;;;;;;5036512;28;20304;-75
2021/11/14 00:16:49;;;;;;;24.13;14.55;;;5.60;92.80;;;;;;5035635;28;20036;-76
2021/11/14 00:19:18;;;;;;;19.17;12.55;;;5.60;92.70;;;;;;5034102;28;20037;-75
2021/11/14 00:21:44;;;;;;;27.08;15.68;;;5.60;92.60;;;;;;5032362;28;20025;-76
2021/11/14 00:24:14;;;;;;;27.90;16.08;;;5.50;92.80;;;;;;5033267;28;20026;-76
2021/11/14 00:26:41;;;;;;;32.28;17.55;;;5.50;92.50;;;;;;5027526;28;20013;-76
2021/11/14 00:29:08;;;;;;;28.77;17.67;;;5.50;92.30;;;;;;5029793;28;20033;-76
2021/11/14 00:31:34;;;;;;;29.58;17.33;;;5.50;91.80;;;;;;5035066;28;20033;-75
2021/11/14 00:34:01;;;;;;;33.40;18.65;;;5.60;92.00;;;;;;5048850;28;20057;-77
2021/11/14 00:36:28;;;;;;;26.23;16.20;;;5.60;92.30;;;;;;5035421;28;20079;-76
2021/11/14 00:38:55;;;;;;;27.55;16.42;;;5.60;92.20;;;;;;5031272;28;20037;-76
2021/11/14 00:41:23;;;;;;;28.17;15.05;;;5.60;91.70;;;;;;5035028;28;20037;-76
2021/11/14 00:43:50;;;;;;;24.15;14.85;;;5.80;91.10;;;;;;5051024;28;20021;-76
2021/11/14 00:46:16;;;;;;;24.55;14.68;;;5.90;91.90;;;;;;5030930;28;20056;-75
2021/11/14 00:48:42;;;;;;;24.75;15.82;;;5.90;92.60;;;;;;5052024;28;20109;-76
2021/11/14 00:51:11;;;;;;;24.92;14.95;;;6.00;93.50;;;;;;5035963;28;20022;-76
2021/11/14 00:53:37;;;;;;;24.55;15.60;;;6.00;94.30;;;;;;5036188;28;20032;-76
2021/11/14 00:56:03;;;;;;;25.52;15.52;;;6.00;94.50;;;;;;5031437;28;20033;-75
2021/11/14 00:58:30;;;;;;;29.92;17.08;;;6.00;95.20;;;;;;5034110;28;20028;-76
2021/11/14 01:00:57;;;;;;;26.38;16.58;;;5.90;95.30;;;;;;5033029;28;20028;-76
2021/11/14 01:03:22;;;;;;;30.55;18.00;;;5.90;95.20;;;;;;5035620;28;20040;-76
2021/11/14 01:05:48;;;;;;;25.38;15.80;;;5.90;95.20;;;;;;5030521;28;20030;-76
2021/11/14 01:08:14;;;;;;;27.52;17.23;;;5.90;94.90;;;;;;5035238;28;20035;-77
2021/11/14 01:10:45;;;;;;;30.98;17.08;;;5.90;94.90;;;;;;5034482;28;20032;-76
2021/11/14 01:13:10;;;;;;;24.58;15.18;;;5.90;94.90;;;;;;5035571;28;20068;-76
2021/11/14 01:15:37;;;;;;;25.95;15.45;;;5.90;94.60;;;;;;5048923;28;20382;-76
2021/11/14 01:18:03;;;;;;;24.23;14.98;;;6.00;94.60;;;;;;5035220;28;20037;-76
2021/11/14 01:20:36;;;;;;;24.40;15.73;;;6.00;94.90;;;;;;5032768;28;20083;-75
2021/11/14 01:23:04;;;;;;;24.63;15.30;;;6.10;95.20;;;;;;5030697;28;20030;-76
2021/11/14 01:25:30;;;;;;;25.00;14.98;;;6.10;95.40;;;;;;5032030;28;20071;-76
2021/11/14 01:27:56;;;;;;;26.90;16.10;;;6.10;95.70;;;;;;5034736;28;20025;-76
2021/11/14 01:30:28;;;;;;;26.80;16.63;;;6.10;95.90;;;;;;5033432;28;20029;-77
2021/11/14 01:32:58;;;;;;;31.88;17.90;;;6.10;96.00;;;;;;5029505;28;20148;-76
2021/11/14 01:35:25;;;;;;;29.40;17.40;;;6.10;96.20;;;;;;5030496;28;20029;-76
2021/11/14 01:37:52;;;;;;;26.92;16.30;;;6.10;96.10;;;;;;5031118;28;20030;-76
2021/11/14 01:40:24;;;;;;;28.02;15.98;;;6.10;95.90;;;;;;5033049;28;20067;-76
2021/11/14 01:42:51;;;;;;;26.50;15.48;;;6.20;96.30;;;;;;5035373;28;20100;-76
2021/11/14 01:45:20;;;;;;;25.48;14.65;;;6.20;96.40;;;;;;5033157;28;20449;-76
2021/11/14 01:47:46;;;;;;;24.80;14.52;;;6.30;96.80;;;;;;5034524;28;20025;-75
2021/11/14 01:50:14;;;;;;;25.75;15.57;;;6.30;97.10;;;;;;5032568;28;20071;-76
2021/11/14 01:52:42;;;;;;;24.52;14.25;;;6.30;97.30;;;;;;5049644;28;20025;-76
2021/11/14 01:55:08;;;;;;;25.58;15.02;;;6.30;96.90;;;;;;5032144;28;20052;-76
2021/11/14 01:57:36;;;;;;;29.10;17.27;;;6.30;96.70;;;;;;5034985;28;20037;-76
2021/11/14 02:00:06;;;;;;;27.60;15.75;;;6.30;96.80;;;;;;5035236;28;20307;-76
2021/11/14 02:02:32;;;;;;;24.40;14.35;;;6.30;96.70;;;;;;5028100;28;20041;-76
2021/11/14 02:04:58;;;;;;;25.73;15.07;;;6.30;96.80;;;;;;5034541;28;20291;-76
2021/11/14 02:07:23;;;;;;;28.25;15.23;;;6.30;96.90;;;;;;5034055;28;20419;-76
2021/11/14 02:09:49;;;;;;;28.13;15.40;;;6.30;96.90;;;;;;5048929;28;20479;-76
2021/11/14 02:12:15;;;;;;;30.15;17.08;;;6.30;97.00;;;;;;5033060;28;20061;-76
2021/11/14 02:14:41;;;;;;;26.77;15.57;;;6.30;96.90;;;;;;5032301;28;20076;-75
2021/11/14 02:17:07;;;;;;;27.20;15.20;;;6.30;96.70;;;;;;5034417;28;20038;-76
2021/11/14 02:19:33;;;;;;;27.13;16.02;;;6.30;96.70;;;;;;5033931;28;20476;-76
2021/11/14 02:21:58;;;;;;;24.23;13.90;;;6.30;96.60;;;;;;5031017;28;20398;-76
2021/11/14 02:24:24;;;;;;;28.48;16.10;;;6.30;96.60;;;;;;5034204;28;20117;-76
2021/11/14 02:26:51;;;;;;;32.33;17.98;;;6.30;96.70;;;;;;5036929;28;20022;-77
2021/11/14 02:29:17;;;;;;;30.13;15.95;;;6.30;96.60;;;;;;5037737;28;20033;-75
2021/11/14 02:31:43;;;;;;;31.73;17.27;;;6.20;96.50;;;;;;5035487;28;20037;-76
2021/11/14 02:34:10;;;;;;;28.67;17.10;;;6.20;96.30;;;;;;5030830;28;20312;-76
2021/11/14 02:36:36;;;;;;;27.92;15.98;;;6.10;96.10;;;;;;5037331;28;20052;-75
2021/11/14 02:39:04;;;;;;;26.45;16.02;;;6.10;96.10;;;;;;5037154;28;20030;-76
2021/11/14 02:41:29;;;;;;;27.95;16.50;;;6.10;95.80;;;;;;5053250;28;20036;-75
2021/11/14 02:43:55;;;;;;;30.88;17.08;;;6.10;95.60;;;;;;5035195;28;20335;-76
2021/11/14 02:46:21;;;;;;;27.73;14.60;;;6.10;95.40;;;;;;5037007;28;20383;-75
2021/11/14 02:48:47;;;;;;;30.70;15.85;;;6.10;95.10;;;;;;5038476;28;20033;-75
2021/11/14 02:51:23;;;;;;;28.90;15.30;;;6.10;95.20;;;;;;5038104;28;20104;-78
2021/11/14 02:53:50;;;;;;;30.02;16.52;;;6.10;95.10;;;;;;5053387;28;20084;-76
2021/11/14 02:56:16;;;;;;;32.55;16.75;;;6.10;95.10;;;;;;5036301;28;20429;-77
2021/11/14 02:58:43;;;;;;;29.85;15.95;;;6.10;95.30;;;;;;5035501;28;20041;-77
2021/11/14 03:01:37;;;;;;;32.80;17.55;;;6.10;95.20;;;;;;5036202;28;20025;-76
2021/11/14 03:04:04;;;;;;;;;;;6.10;95.20;;;;;;5033362;28;20037;-76
2021/11/14 03:06:30;;;;;;;37.15;18.45;;;6.00;95.20;;;;;;5036438;28;19913;-76
2021/11/14 03:08:56;;;;;;;32.58;17.77;;;6.00;95.10;;;;;;5030825;28;20040;-76
2021/11/14 03:11:22;;;;;;;30.23;15.50;;;6.00;94.80;;;;;;5034451;28;20481;-76
2021/11/14 03:13:48;;;;;;;37.17;17.10;;;5.90;94.70;;;;;;5036752;28;20091;-76
2021/11/14 03:16:17;;;;;;;35.63;16.75;;;5.90;94.70;;;;;;5035828;28;20036;-76
2021/11/14 03:18:42;;;;;;;29.67;16.30;;;5.90;94.60;;;;;;5037253;28;20064;-76
2021/11/14 03:21:09;;;;;;;36.03;17.88;;;5.90;94.30;;;;;;5036320;28;20384;-75
2021/11/14 03:23:36;;;;;;;39.42;18.83;;;5.90;94.20;;;;;;5037200;28;20041;-76
2021/11/14 03:26:03;;;;;;;36.47;18.70;;;5.90;94.60;;;;;;5034547;28;20087;-75
2021/11/14 03:28:30;;;;;;;31.05;15.75;;;5.90;94.40;;;;;;5036624;28;20105;-75
2021/11/14 03:30:57;;;;;;;29.00;15.82;;;5.90;94.30;;;;;;5031493;28;20076;-77
2021/11/14 03:33:23;;;;;;;32.33;16.63;;;5.90;94.60;;;;;;5037246;28;20102;-75
2021/11/14 03:35:53;;;;;;;30.40;16.63;;;5.90;94.70;;;;;;5037435;28;20026;-75
2021/11/14 03:38:32;;;;;;;31.88;16.33;;;5.90;94.80;;;;;;5036315;28;20026;-76
2021/11/14 03:40:59;;;;;;;33.03;16.20;;;5.90;95.00;;;;;;5035928;28;20439;-76
2021/11/14 03:43:26;;;;;;;31.58;16.50;;;5.90;95.00;;;;;;5048103;28;20087;-76
2021/11/14 03:45:51;;;;;;;35.03;17.35;;;5.80;95.20;;;;;;5030359;28;20049;-75
2021/11/14 03:48:17;;;;;;;33.90;17.63;;;5.80;95.20;;;;;;5031742;28;20055;-75
2021/11/14 03:50:43;;;;;;;28.58;14.00;;;5.70;95.20;;;;;;5030189;28;20029;-76
2021/11/14 03:53:11;;;;;;;30.27;15.35;;;5.60;95.20;;;;;;5031680;28;20037;-76
2021/11/14 03:55:37;;;;;;;31.00;15.25;;;5.50;95.00;;;;;;5030614;28;20433;-76
2021/11/14 03:58:04;;;;;;;22.80;12.73;;;5.50;94.70;;;;;;5030455;28;20483;-76
2021/11/14 04:00:34;;;;;;;29.85;14.65;;;5.50;94.40;;;;;;5033293;28;20060;-76
2021/11/14 04:03:00;;;;;;;29.17;13.90;;;5.50;94.20;;;;;;5047630;28;20033;-75
2021/11/14 04:05:31;;;;;;;32.58;15.55;;;5.40;93.60;;;;;;5034219;28;20071;-76
2021/11/14 04:07:59;;;;;;;28.35;14.10;;;5.40;93.50;;;;;;5024500;28;20369;-75
2021/11/14 04:10:26;;;;;;;35.75;16.65;;;5.50;92.90;;;;;;5033861;28;20021;-75
2021/11/14 04:12:52;;;;;;;31.02;14.55;;;5.40;93.20;;;;;;5035128;28;20357;-76
2021/11/14 04:15:18;;;;;;;35.03;15.52;;;5.40;92.80;;;;;;5030700;28;20033;-76
2021/11/14 04:17:44;;;;;;;29.75;14.00;;;5.40;92.70;;;;;;5027370;28;20044;-77
2021/11/14 04:20:12;;;;;;;28.85;14.35;;;5.40;92.50;;;;;;5036173;28;20044;-76
2021/11/14 04:22:39;;;;;;;24.95;13.43;;;5.50;92.50;;;;;;5034278;28;20432;-76
2021/11/14 04:25:08;;;;;;;27.92;12.82;;;5.50;92.50;;;;;;5034844;28;20025;-76
2021/11/14 04:27:34;;;;;;;26.75;13.43;;;5.60;92.50;;;;;;5036213;28;20309;-76
2021/11/14 04:30:00;;;;;;;25.80;12.68;;;5.60;92.50;;;;;;5034878;28;20108;-77
2021/11/14 04:32:26;;;;;;;22.88;11.07;;;5.60;92.40;;;;;;5036818;28;20100;-76
2021/11/14 04:34:52;;;;;;;18.45;10.13;;;5.60;92.50;;;;;;5034686;28;20135;-76
2021/11/14 04:37:18;;;;;;;21.10;10.75;;;5.60;92.30;;;;;;5032708;28;20049;-76
2021/11/14 04:39:43;;;;;;;22.67;11.68;;;5.70;92.90;;;;;;5032653;28;20025;-76
2021/11/14 04:42:09;;;;;;;22.58;11.77;;;5.70;92.70;;;;;;5031872;28;20108;-76
2021/11/14 04:44:36;;;;;;;17.50;9.27;;;5.70;92.80;;;;;;5034365;28;20422;-76
2021/11/14 04:47:02;;;;;;;19.13;10.60;;;5.70;92.90;;;;;;5035408;28;20083;-76
2021/11/14 04:49:28;;;;;;;20.23;10.48;;;5.70;92.90;;;;;;5035705;28;20100;-75
2021/11/14 04:51:53;;;;;;;18.08;10.07;;;5.70;93.20;;;;;;5035237;28;20105;-76
2021/11/14 04:54:19;;;;;;;17.75;10.90;;;5.70;93.10;;;;;;5034334;28;20029;-75
2021/11/14 04:56:46;;;;;;;19.40;10.10;;;5.80;93.10;;;;;;5029429;28;20053;-75
2021/11/14 04:59:12;;;;;;;17.23;9.90;;;5.80;93.40;;;;;;5032543;28;20091;-76
2021/11/14 05:01:39;;;;;;;16.52;9.68;;;5.80;93.30;;;;;;5031546;28;20033;-76
2021/11/14 05:04:08;;;;;;;12.75;7.68;;;5.80;93.40;;;;;;5035932;28;20034;-75
2021/11/14 05:06:33;;;;;;;13.23;7.38;;;5.90;92.60;;;;;;5035652;28;20022;-76
2021/11/14 05:09:00;;;;;;;12.23;6.93;;;6.00;92.90;;;;;;5036168;28;20022;-76
2021/11/14 05:11:26;;;;;;;12.43;7.05;;;6.00;93.10;;;;;;5032760;28;20426;-76
2021/11/14 05:13:51;;;;;;;11.95;7.03;;;6.20;93.40;;;;;;5034559;28;20112;-76
2021/11/14 05:16:17;;;;;;;12.68;7.53;;;6.20;94.10;;;;;;5031853;28;20042;-77
2021/11/14 05:18:43;;;;;;;12.80;7.50;;;6.30;95.00;;;;;;5035548;28;20076;-76
2021/11/14 05:21:09;;;;;;;17.38;9.32;;;6.30;95.20;;;;;;5033634;28;20350;-76
2021/11/14 05:23:36;;;;;;;15.88;9.35;;;6.30;95.70;;;;;;5030057;28;20339;-75
2021/11/14 05:26:02;;;;;;;15.75;9.60;;;6.40;96.40;;;;;;5046960;28;20446;-76
2021/11/14 05:28:28;;;;;;;20.90;11.55;;;6.40;97.10;;;;;;5051084;28;20322;-76
2021/11/14 05:30:53;;;;;;;16.35;10.23;;;6.40;97.20;;;;;;5031809;28;20029;-76
2021/11/14 05:33:19;;;;;;;20.10;11.75;;;6.40;97.10;;;;;;5035277;28;20037;-75
2021/11/14 05:35:45;;;;;;;20.73;11.65;;;6.40;97.50;;;;;;5034733;28;20037;-77
2021/11/14 05:38:11;;;;;;;20.65;11.70;;;6.30;97.30;;;;;;5035025;28;20492;-75
2021/11/14 05:40:37;;;;;;;21.33;11.27;;;6.30;97.20;;;;;;5033563;28;20033;-76
2021/11/14 05:43:03;;;;;;;24.00;13.15;;;6.30;97.20;;;;;;5033971;28;20041;-75
2021/11/14 05:45:29;;;;;;;20.75;12.48;;;6.30;97.20;;;;;;5027506;28;20030;-76
2021/11/14 05:47:55;;;;;;;22.38;12.43;;;6.30;97.30;;;;;;5030594;28;20083;-77
2021/11/14 05:50:21;;;;;;;20.55;11.95;;;6.30;97.30;;;;;;5050104;28;20021;-76
2021/11/14 05:52:47;;;;;;;23.88;12.93;;;6.30;97.40;;;;;;5034488;28;20030;-77
2021/11/14 05:55:16;;;;;;;21.75;11.27;;;6.20;97.30;;;;;;5031456;28;20394;-77
2021/11/14 06:00:56;;;;;;;19.90;11.23;;;6.30;96.80;;;;;;5033579;28;20108;-76
2021/11/14 06:05:52;;;;;;;23.92;12.25;;;6.40;97.30;;;;;;5034479;28;20028;-76
2021/11/14 06:08:21;;;;;;;22.30;12.25;;;6.40;97.30;;;;;;5034584;28;20029;-76
2021/11/14 06:10:54;;;;;;;23.42;12.70;;;6.40;97.60;;;;;;5026436;28;20029;-76
2021/11/14 06:13:21;;;;;;;22.65;13.00;;;6.40;97.50;;;;;;5033277;28;20036;-76
2021/11/14 06:15:48;;;;;;;23.08;12.35;;;6.50;97.80;;;;;;5034456;28;20040;-76
2021/11/14 06:18:14;;;;;;;23.55;12.95;;;6.50;98.00;;;;;;5034766;28;20025;-75
2021/11/14 06:20:40;;;;;;;22.02;12.50;;;6.50;98.00;;;;;;5034012;28;20084;-76
2021/11/14 06:23:06;;;;;;;21.35;12.20;;;6.50;98.00;;;;;;5027284;28;20300;-76
2021/11/14 06:25:33;;;;;;;21.05;12.93;;;6.50;98.00;;;;;;5018615;28;20072;-76
2021/11/14 06:27:58;;;;;;;20.17;11.45;;;6.50;98.00;;;;;;5027696;28;20403;-76
2021/11/14 06:30:25;;;;;;;18.02;10.10;;;6.40;98.00;;;;;;5030261;28;20104;-76
2021/11/14 06:32:51;;;;;;;18.30;11.63;;;6.40;98.00;;;;;;5034210;28;20104;-76
2021/11/14 06:35:16;;;;;;;21.30;11.20;;;6.40;98.00;;;;;;5032282;28;20357;-76
2021/11/14 06:37:42;;;;;;;20.50;11.50;;;6.30;97.90;;;;;;5033736;28;20021;-76
2021/11/14 06:40:09;;;;;;;19.58;11.82;;;6.30;97.80;;;;;;5032917;28;20053;-77
2021/11/14 06:42:35;;;;;;;20.65;11.65;;;6.40;97.60;;;;;;5032824;28;20041;-76
2021/11/14 06:45:01;;;;;;;22.58;15.43;;;6.40;97.40;;;;;;5033019;28;20026;-76
2021/11/14 06:47:27;;;;;;;20.85;12.15;;;6.40;97.30;;;;;;5029896;28;20430;-76
2021/11/14 06:49:53;;;;;;;20.10;11.48;;;6.50;97.80;;;;;;5034831;28;20104;-76
2021/11/14 06:52:20;;;;;;;23.20;13.65;;;6.50;97.80;;;;;;5033780;28;20048;-76
2021/11/14 06:54:46;;;;;;;19.70;13.40;;;6.50;98.00;;;;;;5033199;28;20054;-75
2021/11/14 06:57:11;;;;;;;22.15;14.55;;;6.50;97.90;;;;;;5034680;28;20370;-76
2021/11/14 06:59:38;;;;;;;23.15;14.23;;;6.60;97.80;;;;;;5033685;28;20108;-76
2021/11/14 07:02:07;;;;;;;22.25;13.90;;;6.50;98.00;;;;;;5034025;28;20509;-76
2021/11/14 07:04:34;;;;;;;20.75;13.60;;;6.60;98.00;;;;;;5028712;28;20410;-75
2021/11/14 07:06:59;;;;;;;21.52;14.20;;;6.60;97.90;;;;;;5033647;28;20354;-75
2021/11/14 07:09:25;;;;;;;23.92;14.73;;;6.70;98.00;;;;;;5031046;28;20030;-77
2021/11/14 07:11:53;;;;;;;22.63;14.43;;;6.70;98.00;;;;;;5032547;28;20386;-76
2021/11/14 07:14:23;;;;;;;28.50;18.67;;;6.80;98.00;;;;;;5052133;28;20029;-76
2021/11/14 07:16:49;;;;;;;28.52;18.05;;;6.80;98.00;;;;;;5029889;28;20022;-76
2021/11/14 07:19:15;;;;;;;23.70;14.73;;;6.80;98.00;;;;;;5038068;28;20033;-76
2021/11/14 07:21:42;;;;;;;25.80;15.82;;;6.80;98.00;;;;;;5035448;28;20100;-75
2021/11/14 07:24:08;;;;;;;22.75;14.23;;;6.80;98.00;;;;;;5032942;28;20183;-76
2021/11/14 07:26:34;;;;;;;30.77;16.90;;;6.80;98.00;;;;;;5035891;28;20056;-76
2021/11/14 07:28:59;;;;;;;27.63;15.40;;;6.90;98.00;;;;;;5035869;28;20049;-76
2021/11/14 07:31:25;;;;;;;24.65;15.07;;;6.90;98.00;;;;;;5036725;28;20030;-76
2021/11/14 07:33:51;;;;;;;28.83;16.58;;;7.00;98.00;;;;;;5037503;28;20029;-76
2021/11/14 07:36:17;;;;;;;24.88;14.63;;;7.10;98.00;;;;;;5037367;28;20326;-76
2021/11/14 07:38:43;;;;;;;23.98;14.35;;;7.30;98.00;;;;;;5037124;28;20064;-76
2021/11/14 07:41:09;;;;;;;26.48;15.02;;;7.40;98.00;;;;;;5036233;28;20029;-76
2021/11/14 07:43:35;;;;;;;23.30;13.13;;;7.60;98.00;;;;;;5037127;28;20091;-77
2021/11/14 07:46:00;;;;;;;22.73;13.55;;;7.70;98.00;;;;;;5035661;28;20037;-76
2021/11/14 07:48:26;;;;;;;20.27;12.32;;;7.80;98.00;;;;;;5037233;28;20318;-76
2021/11/14 07:50:57;;;;;;;12.55;7.90;;;7.90;98.00;;;;;;5034529;28;20026;-76
2021/11/14 07:53:23;;;;;;;13.52;8.00;;;8.00;98.00;;;;;;5033856;28;20045;-76
2021/11/14 07:55:50;;;;;;;13.50;8.13;;;8.10;98.00;;;;;;5033247;28;20026;-76
2021/11/14 07:58:17;;;;;;;14.68;8.23;;;8.20;98.00;;;;;;5052979;28;20040;-76
2021/11/14 08:00:42;;;;;;;72.38;39.53;;;8.20;98.00;;;;;;5031953;28;20448;-76
2021/11/14 08:03:14;;;;;;;17.73;8.82;;;8.30;98.00;;;;;;5034421;28;20053;-76
2021/11/14 08:05:40;;;;;;;31.83;18.42;;;8.30;98.00;;;;;;5030564;28;20152;-76
2021/11/14 08:08:07;;;;;;;20.75;12.43;;;8.30;98.00;;;;;;5035276;28;20038;-76
2021/11/14 08:10:33;;;;;;;15.65;9.30;;;8.30;98.00;;;;;;5035180;28;20084;-76
2021/11/14 08:13:00;;;;;;;15.70;9.65;;;8.30;98.00;;;;;;5035803;28;20026;-76
2021/11/14 08:15:27;;;;;;;18.08;11.35;;;8.10;98.00;;;;;;5034987;28;20034;-76
2021/11/14 08:17:53;;;;;;;18.90;10.82;;;7.90;98.00;;;;;;5035168;28;20087;-76
2021/11/14 08:20:19;;;;;;;19.52;11.30;;;7.70;98.00;;;;;;5045069;28;20052;-75
2021/11/14 08:22:45;;;;;;;20.58;11.00;;;7.70;98.00;;;;;;5043395;28;20061;-75
2021/11/14 08:25:13;;;;;;;17.67;10.48;;;7.70;98.00;;;;;;5033431;28;20025;-75
2021/11/14 08:27:39;;;;;;;20.10;11.70;;;7.70;98.00;;;;;;5035018;28;20067;-76
2021/11/14 08:30:08;;;;;;;19.30;10.32;;;7.60;98.00;;;;;;5034971;28;20033;-75
2021/11/14 08:32:34;;;;;;;27.70;14.48;;;7.60;98.00;;;;;;5031933;28;20022;-76
2021/11/14 08:35:00;;;;;;;21.88;11.68;;;7.60;98.00;;;;;;5033647;28;20461;-75
2021/11/14 08:37:26;;;;;;;19.48;10.65;;;7.60;98.00;;;;;;5036365;28;20022;-76
2021/11/14 08:39:51;;;;;;;17.90;9.82;;;7.70;98.00;;;;;;5034116;28;20029;-76
2021/11/14 08:42:17;;;;;;;22.23;12.07;;;7.80;98.00;;;;;;5035786;28;20402;-75
2021/11/14 08:44:44;;;;;;;18.88;9.30;;;7.90;98.00;;;;;;5034319;28;20063;-76
2021/11/14 08:47:10;;;;;;;22.15;11.23;;;8.00;98.00;;;;;;5034804;28;20360;-76
2021/11/14 08:49:36;;;;;;;19.55;9.73;;;8.20;98.00;;;;;;5035467;28;20322;-77
2021/11/14 08:52:03;;;;;;;23.33;11.88;;;8.40;98.00;;;;;;5034468;28;20025;-76
2021/11/14 08:54:28;;;;;;;18.52;9.70;;;8.50;98.00;;;;;;5034890;28;20043;-75
2021/11/14 08:56:54;;;;;;;18.45;9.50;;;8.70;98.00;;;;;;5034503;28;20025;-78
2021/11/14 08:59:20;;;;;;;18.95;9.95;;;8.90;98.00;;;;;;5035764;28;20083;-75
2021/11/14 09:01:46;;;;;;;19.58;9.60;;;9.10;98.00;;;;;;5032507;28;20103;-75
2021/11/14 09:04:11;;;;;;;25.15;10.10;;;9.00;98.00;;;;;;5035064;28;20030;-75
2021/11/14 09:06:38;;;;;;;21.17;10.43;;;8.90;98.00;;;;;;5035705;28;20041;-76
2021/11/14 09:09:06;;;;;;;21.17;11.07;;;9.00;98.00;;;;;;5034757;28;20036;-76
2021/11/14 09:11:32;;;;;;;19.50;10.02;;;9.40;98.00;;;;;;5034135;28;20084;-75
2021/11/14 09:13:58;;;;;;;22.33;10.98;;;9.50;98.00;;;;;;5035687;28;20033;-75
2021/11/14 09:16:27;;;;;;;22.17;11.30;;;9.70;98.00;;;;;;5028443;28;20026;-75
2021/11/14 09:18:55;;;;;;;20.27;10.15;;;9.70;98.00;;;;;;5028211;28;20032;-76
2021/11/14 09:21:21;;;;;;;19.48;9.85;;;9.40;98.00;;;;;;5028474;28;20338;-77
2021/11/14 09:23:47;;;;;;;21.10;11.35;;;9.20;98.00;;;;;;5051281;28;20120;-76
2021/11/14 09:26:13;;;;;;;18.90;10.00;;;9.20;98.00;;;;;;5033589;28;20026;-76
2021/11/14 09:28:42;;;;;;;20.30;10.13;;;9.30;98.00;;;;;;5035734;28;20071;-76
2021/11/14 09:31:09;;;;;;;20.63;9.25;;;9.50;98.00;;;;;;5034504;28;20030;-76
2021/11/14 09:33:36;;;;;;;19.15;9.55;;;9.40;98.00;;;;;;5025274;28;20036;-75
2021/11/14 09:36:03;;;;;;;18.83;9.68;;;9.40;98.00;;;;;;5029353;28;20026;-75
2021/11/14 09:38:29;;;;;;;19.33;9.43;;;9.40;98.00;;;;;;5037863;28;20326;-75
2021/11/14 09:40:59;;;;;;;19.85;10.30;;;9.50;98.00;;;;;;5023471;28;20086;-76
2021/11/14 09:43:25;;;;;;;23.45;11.05;;;9.20;98.00;;;;;;5033801;28;20419;-76
2021/11/14 09:45:52;;;;;;;21.10;10.68;;;9.10;98.00;;;;;;5035007;28;20028;-76
2021/11/14 09:48:19;;;;;;;19.67;10.50;;;9.10;98.00;;;;;;5033786;28;20063;-76
2021/11/14 09:50:45;;;;;;;18.75;10.35;;;9.30;98.00;;;;;;5034000;28;20034;-76
2021/11/14 09:53:12;;;;;;;21.20;11.30;;;9.40;98.00;;;;;;5028026;28;20034;-76
2021/11/14 09:55:37;;;;;;;25.88;14.35;;;9.30;98.00;;;;;;5019458;28;20322;-76
2021/11/14 09:58:07;;;;;;;24.45;13.27;;;9.50;98.00;;;;;;5033692;28;20033;-76
2021/11/14 10:00:39;;;;;;;20.00;11.20;;;9.50;98.00;;;;;;5030836;28;20311;-76
2021/11/14 10:03:06;;;;;;;19.90;10.88;;;9.70;98.00;;;;;;5025761;28;20060;-76
2021/11/14 10:05:34;;;;;;;20.77;10.32;;;10.10;97.90;;;;;;5034457;28;20026;-76
2021/11/14 10:08:05;;;;;;;20.27;10.70;;;10.60;98.00;;;;;;5028619;28;20072;-76
2021/11/14 10:10:34;;;;;;;21.08;10.60;;;10.90;95.40;;;;;;5023249;28;20025;-76
2021/11/14 10:13:13;;;;;;;19.10;9.80;;;10.70;94.90;;;;;;5051659;28;20057;-75
2021/11/14 10:15:39;;;;;;;20.90;10.80;;;10.70;95.90;;;;;;5035814;28;20030;-75
2021/11/14 10:18:06;;;;;;;20.35;11.02;;;11.20;95.80;;;;;;5031108;28;20021;-75
2021/11/14 10:20:36;;;;;;;17.70;9.50;;;11.80;93.90;;;;;;5028147;28;20433;-75
2021/11/14 10:23:07;;;;;;;18.50;9.75;;;12.60;91.30;;;;;;5030263;28;20098;-75
2021/11/14 10:25:34;;;;;;;17.55;9.18;;;13.00;89.60;;;;;;5027206;28;20025;-76
2021/11/14 10:28:02;;;;;;;20.80;9.65;;;13.00;89.00;;;;;;5048199;28;20453;-75
2021/11/14 10:30:30;;;;;;;18.95;9.45;;;12.80;88.90;;;;;;5032527;28;20030;-76
2021/11/14 10:32:59;;;;;;;19.77;10.30;;;11.70;90.70;;;;;;5034332;28;20021;-76
2021/11/14 10:35:26;;;;;;;21.27;10.65;;;11.20;93.00;;;;;;5034212;28;20045;-75
2021/11/14 10:37:55;;;;;;;21.85;12.82;;;10.80;94.00;;;;;;5033334;28;20416;-75
2021/11/14 10:40:30;;;;;;;22.05;14.40;;;10.40;96.20;;;;;;5031943;28;20025;-75
2021/11/14 10:42:58;;;;;;;23.67;14.60;;;10.10;97.90;;;;;;5033786;28;20318;-75
2021/11/14 10:45:25;;;;;;;25.10;15.93;;;9.80;98.00;;;;;;5034321;28;20041;-75
2021/11/14 10:48:00;;;;;;;24.83;14.32;;;9.50;98.00;;;;;;5035991;28;20032;-75
2021/11/14 10:50:34;;;;;;;26.85;15.52;;;9.60;98.00;;;;;;5037497;28;20071;-75
2021/11/14 10:53:15;;;;;;;17.33;9.93;;;9.60;98.00;;;;;;5029738;28;20049;-75
2021/11/14 10:55:45;;;;;;;20.85;12.02;;;9.50;98.00;;;;;;5036992;28;20032;-75
2021/11/14 10:58:14;;;;;;;21.20;12.70;;;9.70;98.00;;;;;;5036781;28;20426;-75
2021/11/14 11:00:42;;;;;;;28.17;16.52;;;9.70;98.00;;;;;;5038267;28;20025;-76
2021/11/14 11:03:10;;;;;;;22.20;12.77;;;9.90;98.00;;;;;;5038464;28;20053;-75
2021/11/14 11:05:37;;;;;;;19.92;12.23;;;10.10;98.00;;;;;;5032137;28;20030;-75
2021/11/14 11:08:07;;;;;;;21.90;12.50;;;10.30;98.00;;;;;;5031744;28;20025;-75
2021/11/14 11:10:41;;;;;;;19.30;11.85;;;10.40;98.00;;;;;;5036362;28;20018;-75
2021/11/14 11:13:29;;;;;;;23.85;14.40;;;10.00;98.00;;;;;;5030700;28;20056;-75
2021/11/14 11:15:55;;;;;;;24.73;13.70;;;9.90;98.00;;;;;;5032811;28;20025;-74
2021/11/14 11:18:22;;;;;;;27.15;17.30;;;9.40;98.00;;;;;;5031540;28;20029;-74
2021/11/14 11:20:55;;;;;;;22.35;14.70;;;8.80;98.00;;;;;;5034336;28;20483;-75
2021/11/14 11:23:23;;;;;;;27.35;16.67;;;8.50;98.00;;;;;;5018487;28;20113;-74
2021/11/14 11:25:55;;;;;;;27.35;16.98;;;8.30;98.00;;;;;;5035550;28;20040;-75
2021/11/14 11:28:31;;;;;;;29.20;18.40;;;8.30;98.00;;;;;;5036311;28;20112;-75
2021/11/14 11:31:04;;;;;;;25.02;16.05;;;8.30;98.00;;;;;;5035739;28;20049;-75
2021/11/14 11:33:34;;;;;;;26.33;16.40;;;8.30;98.00;;;;;;5029666;28;20113;-75
2021/11/14 11:36:01;;;;;;;29.38;17.02;;;8.30;98.00;;;;;;5032021;28;20025;-75
2021/11/14 11:38:28;;;;;;;24.05;15.40;;;8.40;98.00;;;;;;5036635;28;20036;-74
2021/11/14 11:40:57;;;;;;;26.98;16.20;;;8.40;98.00;;;;;;5030406;28;20029;-75
2021/11/14 11:43:23;;;;;;;26.08;16.50;;;8.50;98.00;;;;;;5034267;28;20075;-75
2021/11/14 11:45:52;;;;;;;29.48;17.50;;;8.50;98.00;;;;;;5037834;28;20432;-74
2021/11/14 11:48:34;;;;;;;24.48;15.25;;;8.50;98.00;;;;;;5035553;28;20030;-75
2021/11/14 11:51:16;;;;;;;24.33;14.93;;;8.50;98.00;;;;;;5036713;28;20131;-75
2021/11/14 11:53:53;;;;;;;25.60;15.55;;;8.60;98.00;;;;;;5036660;28;20029;-75
2021/11/14 11:56:19;;;;;;;21.92;14.48;;;8.80;98.00;;;;;;5034349;28;20026;-75
2021/11/14 11:58:47;;;;;;;23.92;14.48;;;9.20;98.00;;;;;;5033243;28;20041;-75
2021/11/14 12:01:31;;;;;;;20.73;13.30;;;9.40;98.00;;;;;;5034978;28;20022;-75
2021/11/14 12:04:15;;;;;;;22.02;14.25;;;9.40;98.00;;;;;;5029903;28;20115;-75
2021/11/14 12:06:47;;;;;;;24.40;14.38;;;9.60;98.00;;;;;;5036333;28;20037;-75
2021/11/14 12:09:16;;;;;;;20.98;14.23;;;9.20;98.00;;;;;;5037201;28;20029;-76
2021/11/14 12:11:45;;;;;;;25.98;14.77;;;9.10;98.00;;;;;;5030255;28;20030;-75
2021/11/14 12:14:21;;;;;;;24.02;15.25;;;9.10;98.00;;;;;;5030269;28;20037;-76
2021/11/14 12:17:07;;;;;;;33.08;18.40;;;8.90;98.00;;;;;;5034554;28;20021;-76
2021/11/14 12:19:38;;;;;;;34.20;19.80;;;8.60;98.00;;;;;;5027345;28;20563;-76
2021/11/14 12:22:10;;;;;;;32.60;20.52;;;8.30;98.00;;;;;;5031037;28;20026;-75
2021/11/14 12:24:59;;;;;;;25.98;16.02;;;8.10;98.00;;;;;;5028388;28;20062;-76
2021/11/14 12:27:32;;;;;;;22.23;13.85;;;8.10;98.00;;;;;;5036062;28;20049;-76
2021/11/14 12:30:07;;;;;;;28.80;16.20;;;8.00;98.00;;;;;;5041289;28;20350;-76
2021/11/14 12:32:50;;;;;;;32.95;18.00;;;8.00;98.00;;;;;;5056979;28;20013;-76
2021/11/14 12:35:24;;;;;;;29.75;16.85;;;7.90;98.00;;;;;;5043306;28;20021;-76
2021/11/14 12:37:53;;;;;;;27.85;16.65;;;8.00;98.00;;;;;;5036632;28;20026;-76
2021/11/14 12:40:25;;;;;;;51.10;24.38;;;8.00;98.00;;;;;;5035692;28;20072;-76
2021/11/14 12:43:05;;;;;;;43.95;22.85;;;7.90;98.00;;;;;;5038221;28;20357;-76
2021/11/14 12:45:31;;;;;;;51.65;24.65;;;8.00;98.00;;;;;;5036900;28;20061;-76
2021/11/14 12:47:56;;;;;;;36.28;18.63;;;8.00;98.00;;;;;;5051642;28;20060;-76